createdAt,value
2019-02-20T00:01:41.372Z,16.82
2019-02-20T00:04:12.494Z,18.05
2019-02-20T00:06:47.470Z,18.60
2019-02-20T00:09:17.597Z,16.82
2019-02-20T00:11:47.704Z,18.35
2019-02-20T00:14:18.758Z,17.40
2019-02-20T00:16:49.079Z,17.07
2019-02-20T00:19:20.335Z,16.70
2019-02-20T00:21:50.405Z,16.55
2019-02-20T00:24:26.144Z,16.80
2019-02-20T00:26:55.847Z,17.00
2019-02-20T00:29:25.893Z,17.50
2019-02-20T00:31:55.729Z,17.02
2019-02-20T00:34:26.438Z,17.25
2019-02-20T00:36:56.152Z,17.07
2019-02-20T00:39:27.088Z,18.60
2019-02-20T00:41:57.920Z,17.95
2019-02-20T00:44:29.513Z,19.60
2019-02-20T00:47:01.923Z,17.00
2019-02-20T00:49:33.272Z,18.07
2019-02-20T00:52:12.503Z,19.50
2019-02-20T00:54:42.498Z,19.73
2019-02-20T00:57:12.355Z,21.27
2019-02-20T00:59:43.871Z,19.77
2019-02-20T01:02:13.959Z,19.37
2019-02-20T01:04:43.796Z,19.12
2019-02-20T01:07:13.506Z,18.52
2019-02-20T01:09:43.575Z,18.17
2019-02-20T01:12:13.681Z,16.80
2019-02-20T01:14:51.614Z,17.25
2019-02-20T01:17:21.452Z,17.70
2019-02-20T01:19:51.424Z,19.42
2019-02-20T01:22:21.541Z,18.35
2019-02-20T01:24:51.725Z,18.05
2019-02-20T01:27:21.829Z,18.17
2019-02-20T01:29:51.934Z,18.32
2019-02-20T01:32:22.036Z,18.27
2019-02-20T01:34:52.852Z,18.00
2019-02-20T01:37:25.873Z,16.25
2019-02-20T01:39:55.962Z,18.00
2019-02-20T01:42:35.695Z,16.77
2019-02-20T01:45:11.780Z,17.62
2019-02-20T01:47:42.898Z,16.40
2019-02-20T01:50:15.823Z,16.85
2019-02-20T01:52:47.769Z,18.15
2019-02-20T01:55:17.884Z,18.30
2019-02-20T01:57:47.708Z,17.95
2019-02-20T02:00:24.461Z,17.35
2019-02-20T02:02:54.574Z,16.95
2019-02-20T02:05:25.380Z,18.60
2019-02-20T02:07:55.342Z,17.87
2019-02-20T02:10:25.529Z,17.30
2019-02-20T02:12:59.312Z,16.75
2019-02-20T02:15:31.692Z,17.10
2019-02-20T02:18:02.313Z,18.05
2019-02-20T02:20:32.462Z,16.25
2019-02-20T02:23:08.120Z,16.10
2019-02-20T02:25:39.084Z,15.93
2019-02-20T02:28:08.916Z,16.05
2019-02-20T02:30:38.902Z,15.63
2019-02-20T02:33:08.744Z,17.35
2019-02-20T02:35:40.677Z,16.77
2019-02-20T02:38:10.524Z,15.70
2019-02-20T02:40:40.228Z,15.23
2019-02-20T02:43:11.131Z,14.98
2019-02-20T02:45:42.300Z,15.78
2019-02-20T02:48:12.139Z,15.48
2019-02-20T02:50:41.857Z,16.80
2019-02-20T02:53:18.330Z,15.05
2019-02-20T02:55:48.289Z,14.80
2019-02-20T02:58:18.392Z,12.10
2019-02-20T03:00:48.396Z,14.53
2019-02-20T03:03:18.372Z,14.65
2019-02-20T03:05:48.204Z,15.80
2019-02-20T03:08:17.932Z,15.45
2019-02-20T03:10:47.632Z,14.73
2019-02-20T03:13:17.630Z,16.15
2019-02-20T03:15:47.460Z,14.80
2019-02-20T03:18:17.662Z,16.23
2019-02-20T03:20:53.540Z,17.12
2019-02-20T03:23:23.508Z,15.28
2019-02-20T03:25:53.340Z,14.68
2019-02-20T03:28:23.306Z,14.95
2019-02-20T03:30:53.433Z,15.43
2019-02-20T03:33:27.557Z,15.70
2019-02-20T03:35:57.666Z,14.13
2019-02-20T03:38:30.560Z,15.63
2019-02-20T03:41:05.987Z,17.50
2019-02-20T03:43:38.046Z,18.73
2019-02-20T03:46:08.183Z,17.42
2019-02-20T03:48:38.982Z,17.52
2019-02-20T03:51:08.674Z,18.67
2019-02-20T03:53:38.471Z,17.70
2019-02-20T03:56:08.161Z,18.65
2019-02-20T03:58:38.218Z,19.05
2019-02-20T04:01:10.573Z,17.98
2019-02-20T04:03:41.408Z,16.57
2019-02-20T04:06:17.169Z,15.63
2019-02-20T04:08:51.808Z,14.80
2019-02-20T04:11:21.500Z,13.25
2019-02-20T04:13:51.494Z,14.30
2019-02-20T04:16:21.575Z,16.12
2019-02-20T04:18:52.622Z,16.60
2019-02-20T04:21:23.445Z,15.10
2019-02-20T04:24:02.381Z,18.37
2019-02-20T04:26:35.990Z,16.75
2019-02-20T04:29:06.087Z,16.37
2019-02-20T04:31:35.929Z,16.87
2019-02-20T04:34:05.897Z,16.05
2019-02-20T04:36:35.994Z,17.35
2019-02-20T04:39:08.090Z,16.17
2019-02-20T04:41:38.220Z,16.73
2019-02-20T04:44:08.330Z,17.87
2019-02-20T04:46:44.150Z,18.12
2019-02-20T04:49:14.134Z,17.57
2019-02-20T04:51:44.239Z,16.67
2019-02-20T04:54:14.339Z,20.00
2019-02-20T04:56:51.961Z,16.60
2019-02-20T04:59:21.805Z,15.85
2019-02-20T05:01:51.779Z,17.75
2019-02-20T05:04:21.929Z,15.85
2019-02-20T05:06:58.792Z,17.62
2019-02-20T05:09:29.547Z,16.32
2019-02-20T05:11:59.277Z,16.82
2019-02-20T05:14:29.233Z,19.27
2019-02-20T05:17:04.834Z,17.73
2019-02-20T05:19:34.557Z,17.45
2019-02-20T05:22:05.528Z,18.07
2019-02-20T05:24:35.638Z,17.42
2019-02-20T05:27:05.806Z,19.12
2019-02-20T05:29:35.641Z,18.98
2019-02-20T05:32:05.370Z,19.07
2019-02-20T05:34:36.358Z,18.42
2019-02-20T05:37:06.504Z,21.00
2019-02-20T05:39:39.874Z,21.20
2019-02-20T05:42:17.994Z,21.48
2019-02-20T05:44:47.721Z,20.62
2019-02-20T05:47:36.171Z,19.23
2019-02-20T05:50:07.878Z,20.12
2019-02-20T05:52:37.969Z,19.17
2019-02-20T05:55:09.041Z,20.65
2019-02-20T05:57:39.137Z,17.37
2019-02-20T06:00:11.922Z,20.85
2019-02-20T06:02:43.944Z,17.95
2019-02-20T06:05:15.019Z,20.77
2019-02-20T06:07:50.870Z,18.82
2019-02-20T06:10:20.703Z,19.30
2019-02-20T06:12:50.678Z,21.55
2019-02-20T06:15:20.517Z,21.20
2019-02-20T06:17:51.435Z,20.48
2019-02-20T06:20:23.269Z,20.52
2019-02-20T06:22:55.179Z,21.75
2019-02-20T06:25:26.202Z,21.80
2019-02-20T06:27:56.314Z,21.07
2019-02-20T06:30:26.158Z,20.40
2019-02-20T06:32:56.126Z,22.82
2019-02-20T06:35:28.226Z,22.85
2019-02-20T06:38:04.835Z,20.60
2019-02-20T06:40:34.797Z,21.00
2019-02-20T06:43:08.906Z,21.52
2019-02-20T06:45:39.045Z,21.35
2019-02-20T06:48:08.881Z,19.95
2019-02-20T06:50:38.849Z,21.25
2019-02-20T06:53:08.966Z,19.95
2019-02-20T06:55:40.649Z,21.23
2019-02-20T06:58:13.573Z,19.67
2019-02-20T07:00:43.554Z,20.57
2019-02-20T07:03:13.397Z,20.75
2019-02-20T07:05:44.293Z,19.60
2019-02-20T07:08:43.964Z,18.75
2019-02-20T07:11:19.169Z,18.80
2019-02-20T07:14:10.441Z,20.15
2019-02-20T07:17:05.213Z,21.57
2019-02-20T07:19:57.526Z,21.05
2019-02-20T07:22:48.049Z,19.52
2019-02-20T07:25:30.641Z,20.90
2019-02-20T07:28:15.349Z,21.82
2019-02-20T07:30:50.877Z,21.20
2019-02-20T07:33:20.577Z,20.65
2019-02-20T07:35:50.282Z,21.80
2019-02-20T07:38:19.986Z,20.77
2019-02-20T07:40:49.938Z,20.77
2019-02-20T07:43:22.665Z,21.60
2019-02-20T07:45:54.658Z,20.62
2019-02-20T07:48:24.790Z,22.58
2019-02-20T07:50:54.649Z,22.10
2019-02-20T07:53:24.634Z,20.90
2019-02-20T07:55:54.753Z,21.80
2019-02-20T07:58:25.557Z,20.90
2019-02-20T08:01:01.453Z,20.12
2019-02-20T08:03:31.357Z,20.00
2019-02-20T08:06:01.068Z,22.37
2019-02-20T08:08:31.740Z,22.42
2019-02-20T08:11:01.702Z,20.90
2019-02-20T08:13:39.085Z,21.87
2019-02-20T08:16:03.299Z,22.00
2019-02-20T08:18:33.147Z,22.17
2019-02-20T08:21:03.122Z,22.50
2019-02-20T08:23:33.226Z,24.15
2019-02-20T08:26:03.338Z,24.65
2019-02-20T08:28:33.177Z,25.68
2019-02-20T08:31:03.160Z,24.35
2019-02-20T08:33:33.014Z,22.95
2019-02-20T08:36:02.736Z,24.07
2019-02-20T08:38:32.450Z,25.92
2019-02-20T08:41:02.165Z,26.75
2019-02-20T08:43:32.143Z,24.90
2019-02-20T08:46:02.000Z,26.57
2019-02-20T08:48:31.959Z,24.50
2019-02-20T08:51:02.086Z,24.47
2019-02-20T08:53:31.925Z,24.50
2019-02-20T08:56:02.573Z,23.07
2019-02-20T08:58:32.289Z,22.93
2019-02-20T09:01:03.195Z,21.20
2019-02-20T09:03:33.049Z,23.60
2019-02-20T09:06:03.033Z,22.10
2019-02-20T09:08:35.165Z,23.10
2019-02-20T09:11:05.225Z,25.07
2019-02-20T09:13:36.517Z,23.03
2019-02-20T09:16:06.522Z,25.57
2019-02-20T09:18:37.317Z,24.33
2019-02-20T09:21:07.281Z,24.37
2019-02-20T09:23:43.127Z,22.40
2019-02-20T09:26:13.229Z,24.13
2019-02-20T09:28:49.527Z,22.80
2019-02-20T09:31:19.623Z,20.57
2019-02-20T09:33:49.451Z,23.60
2019-02-20T09:36:19.144Z,23.73
2019-02-20T09:38:49.109Z,24.60
2019-02-20T09:41:18.954Z,23.23
2019-02-20T09:43:49.281Z,23.10
2019-02-20T09:46:19.145Z,22.60
2019-02-20T09:48:48.853Z,25.13
2019-02-20T09:51:23.818Z,22.70
2019-02-20T09:53:54.725Z,21.17
2019-02-20T09:56:24.825Z,17.60
2019-02-20T09:58:56.645Z,15.70
2019-02-20T10:01:32.195Z,16.80
2019-02-20T10:04:05.559Z,15.40
2019-02-20T10:06:35.655Z,15.13
2019-02-20T10:09:06.197Z,15.10
2019-02-20T10:11:37.097Z,13.43
2019-02-20T10:14:08.344Z,14.80
2019-02-20T10:16:38.442Z,14.90
2019-02-20T10:19:08.289Z,13.67
2019-02-20T10:21:38.253Z,13.77
2019-02-20T10:24:08.089Z,13.03
2019-02-20T10:26:43.937Z,13.10
2019-02-20T10:29:18.058Z,12.60
2019-02-20T10:31:57.016Z,12.77
2019-02-20T10:34:27.146Z,11.30
2019-02-20T10:36:56.982Z,11.17
2019-02-20T10:39:26.946Z,11.00
2019-02-20T10:41:56.790Z,11.80
2019-02-20T10:44:26.763Z,10.33
2019-02-20T10:47:04.384Z,10.73
2019-02-20T10:49:34.359Z,10.90
2019-02-20T10:52:04.501Z,10.97
2019-02-20T10:54:34.606Z,10.80
2019-02-20T10:57:04.783Z,12.07
2019-02-20T10:59:34.622Z,11.40
2019-02-20T11:02:04.655Z,10.70
2019-02-20T11:04:36.738Z,10.17
2019-02-20T11:07:07.781Z,8.80
2019-02-20T11:09:37.919Z,8.30
2019-02-20T11:12:07.769Z,8.27
2019-02-20T11:14:37.940Z,8.67
2019-02-20T11:17:07.722Z,8.20
2019-02-20T11:19:38.691Z,8.40
2019-02-20T11:22:08.550Z,7.50
2019-02-20T11:24:40.206Z,6.90
2019-02-20T11:27:10.163Z,9.73
2019-02-20T11:29:40.271Z,9.10
2019-02-20T11:32:10.447Z,9.20
2019-02-20T11:34:43.535Z,9.27
2019-02-20T11:37:13.866Z,9.17
2019-02-20T11:39:50.529Z,10.13
2019-02-20T11:42:20.485Z,8.97
2019-02-20T11:44:50.630Z,9.00
2019-02-20T11:47:20.728Z,8.50
2019-02-20T11:49:56.604Z,9.00
2019-02-20T11:52:37.914Z,10.17
2019-02-20T11:55:01.718Z,8.23
2019-02-20T11:57:34.322Z,9.77
2019-02-20T12:00:08.058Z,8.30
2019-02-20T12:02:38.653Z,8.43
2019-02-20T12:05:09.358Z,7.43
2019-02-20T12:07:39.156Z,8.67
2019-02-20T12:10:12.793Z,8.50
2019-02-20T12:12:43.836Z,9.00
2019-02-20T12:15:13.741Z,6.97
2019-02-20T12:17:43.449Z,8.07
2019-02-20T12:20:13.477Z,7.80
2019-02-20T12:22:43.329Z,7.93
2019-02-20T12:25:13.296Z,7.67
2019-02-20T12:27:54.422Z,7.40
2019-02-20T12:30:24.276Z,7.90
2019-02-20T12:32:54.210Z,7.23
2019-02-20T12:35:24.426Z,6.83
2019-02-20T12:37:55.151Z,6.57
2019-02-20T12:40:25.114Z,5.73
2019-02-20T12:42:55.213Z,5.43
2019-02-20T12:45:25.135Z,5.30
2019-02-20T12:48:02.815Z,5.33
2019-02-20T12:50:32.902Z,5.57
2019-02-20T12:53:02.730Z,5.17
2019-02-20T12:55:38.496Z,5.87
2019-02-20T12:58:19.373Z,6.20
2019-02-20T13:00:50.294Z,6.60
2019-02-20T13:03:20.416Z,6.33
2019-02-20T13:05:50.510Z,5.80
2019-02-20T13:08:20.607Z,6.70
2019-02-20T13:10:51.756Z,6.47
2019-02-20T13:13:21.914Z,6.07
2019-02-20T13:15:52.014Z,6.70
2019-02-20T13:18:22.120Z,5.53
2019-02-20T13:20:52.224Z,6.30
2019-02-20T13:23:22.318Z,7.30
2019-02-20T13:25:52.414Z,6.63
2019-02-20T13:28:22.506Z,6.20
2019-02-20T13:30:52.612Z,6.27
2019-02-20T13:33:22.711Z,6.00
2019-02-20T13:35:56.382Z,5.50
2019-02-20T13:38:26.270Z,6.27
2019-02-20T13:40:55.966Z,5.90
2019-02-20T13:43:26.356Z,6.37
2019-02-20T13:45:57.339Z,6.10
2019-02-20T13:48:27.166Z,6.00
2019-02-20T13:50:58.057Z,6.20
2019-02-20T13:53:34.826Z,6.97
2019-02-20T13:56:05.562Z,6.07
2019-02-20T13:58:36.886Z,6.83
2019-02-20T14:01:06.737Z,6.53
2019-02-20T14:03:38.617Z,7.03
2019-02-20T14:06:08.454Z,6.60
2019-02-20T14:08:38.429Z,5.60
2019-02-20T14:11:10.980Z,6.03
2019-02-20T14:13:42.302Z,5.90
2019-02-20T14:16:14.901Z,5.10
2019-02-20T14:18:45.122Z,4.83
2019-02-20T14:21:21.029Z,5.83
2019-02-20T14:23:51.222Z,4.03
2019-02-20T14:26:20.918Z,5.40
2019-02-20T14:28:50.879Z,4.20
2019-02-20T14:31:20.977Z,4.70
2019-02-20T14:33:52.098Z,5.43
2019-02-20T14:36:22.895Z,4.10
2019-02-20T14:39:00.857Z,4.87
2019-02-20T14:41:39.436Z,4.73
2019-02-20T14:44:09.544Z,3.93
2019-02-20T14:46:39.636Z,5.00
2019-02-20T14:49:10.119Z,5.20
2019-02-20T14:51:45.988Z,5.10
2019-02-20T14:54:24.011Z,5.00
2019-02-20T14:56:56.513Z,5.27
2019-02-20T14:59:26.457Z,4.83
2019-02-20T15:01:56.735Z,5.93
2019-02-20T15:04:26.835Z,5.17
2019-02-20T15:06:57.366Z,4.77
2019-02-20T15:09:28.342Z,5.27
2019-02-20T15:12:04.443Z,4.97
2019-02-20T15:14:34.755Z,4.70
2019-02-20T15:17:04.536Z,4.47
2019-02-20T15:19:47.084Z,5.30
2019-02-20T15:22:16.903Z,3.20
2019-02-20T15:24:46.897Z,4.73
2019-02-20T15:27:16.996Z,4.53
2019-02-20T15:30:04.378Z,5.23
2019-02-20T15:32:38.463Z,4.37
2019-02-20T15:35:14.244Z,4.17
2019-02-20T15:37:45.180Z,4.70
2019-02-20T15:40:20.975Z,7.30
2019-02-20T15:42:51.029Z,7.70
2019-02-20T15:45:21.120Z,5.23
2019-02-20T15:47:51.219Z,6.77
2019-02-20T15:50:23.260Z,5.73
2019-02-20T15:52:54.243Z,5.20
2019-02-20T15:55:24.430Z,5.30
2019-02-20T15:57:54.341Z,6.77
2019-02-20T16:00:26.189Z,5.73
2019-02-20T16:02:56.767Z,5.27
2019-02-20T16:05:27.768Z,4.80
2019-02-20T16:07:57.854Z,5.90
2019-02-20T16:10:27.688Z,5.20
2019-02-20T16:13:00.650Z,7.27
2019-02-20T16:15:32.372Z,11.10
2019-02-20T16:18:02.512Z,7.70
2019-02-20T16:20:33.643Z,8.63
2019-02-20T16:23:03.729Z,7.00
2019-02-20T16:25:33.850Z,10.80
2019-02-20T16:28:03.680Z,10.47
2019-02-20T16:30:33.732Z,9.37
2019-02-20T16:33:04.717Z,10.30
2019-02-20T16:35:37.857Z,12.77
2019-02-20T16:38:07.956Z,13.77
2019-02-20T16:40:39.963Z,9.60
2019-02-20T16:43:09.891Z,7.07
2019-02-20T16:45:40.033Z,13.60
2019-02-20T16:48:09.869Z,15.00
2019-02-20T16:50:39.917Z,8.33
2019-02-20T16:53:20.089Z,7.33
2019-02-20T16:55:50.176Z,8.80
2019-02-20T16:58:22.437Z,7.73
2019-02-20T17:00:52.553Z,7.57
2019-02-20T17:03:25.403Z,6.50
2019-02-20T17:05:55.365Z,6.63
2019-02-20T17:08:25.541Z,7.10
2019-02-20T17:10:56.067Z,7.33
2019-02-20T17:13:26.920Z,7.10
2019-02-20T17:15:59.437Z,8.10
2019-02-20T17:18:29.545Z,7.00
2019-02-20T17:21:05.549Z,6.63
2019-02-20T17:23:36.632Z,6.60
2019-02-20T17:26:06.396Z,6.97
2019-02-20T17:28:36.079Z,6.10
2019-02-20T17:31:06.763Z,7.40
2019-02-20T17:33:36.451Z,5.57
2019-02-20T17:36:06.207Z,3.63
2019-02-20T17:38:38.319Z,4.40
2019-02-20T17:41:09.341Z,3.33
2019-02-20T17:43:39.431Z,3.77
2019-02-20T17:46:09.780Z,3.20
2019-02-20T17:48:40.541Z,3.13
2019-02-20T17:51:10.701Z,4.00
2019-02-20T17:53:40.423Z,4.20
2019-02-20T17:56:10.372Z,4.20
2019-02-20T17:58:42.612Z,4.73
2019-02-20T18:01:15.838Z,4.80
2019-02-20T18:03:46.052Z,4.50
2019-02-20T18:06:16.135Z,4.20
2019-02-20T18:08:46.217Z,4.00
2019-02-20T18:11:22.301Z,5.80
2019-02-20T18:13:58.161Z,8.90
2019-02-20T18:16:28.260Z,7.50
2019-02-20T18:18:59.095Z,6.60
2019-02-20T18:21:29.044Z,9.37
2019-02-20T18:24:00.782Z,7.93
2019-02-20T18:26:30.739Z,8.60
2019-02-20T18:29:00.873Z,6.57
2019-02-20T18:31:31.640Z,7.10
2019-02-20T18:34:01.356Z,6.93
2019-02-20T18:36:31.307Z,8.23
2019-02-20T18:39:01.157Z,7.77
2019-02-20T18:41:30.836Z,8.20
2019-02-20T18:44:00.821Z,7.57
2019-02-20T18:46:30.672Z,7.67
2019-02-20T18:49:00.351Z,7.93
2019-02-20T18:51:30.063Z,7.90
2019-02-20T18:53:59.745Z,7.33
2019-02-20T18:56:29.721Z,7.63
2019-02-20T18:59:01.743Z,7.70
2019-02-20T19:01:32.776Z,7.13
2019-02-20T19:04:03.992Z,7.17
2019-02-20T19:06:34.082Z,6.67
2019-02-20T19:09:07.049Z,6.80
2019-02-20T19:12:04.651Z,6.60
2019-02-20T19:14:47.264Z,6.35
2019-02-20T19:17:42.889Z,7.30
2019-02-20T19:20:32.349Z,8.10
2019-02-20T19:23:26.430Z,7.17
2019-02-20T19:26:30.526Z,6.60
2019-02-20T19:29:28.147Z,7.13
2019-02-20T19:32:40.110Z,6.77
2019-02-20T19:35:43.177Z,6.42
2019-02-20T19:38:18.723Z,6.17
2019-02-20T19:40:54.284Z,6.30
2019-02-20T19:43:31.049Z,6.43
2019-02-20T19:46:34.188Z,6.67
2019-02-20T19:49:13.074Z,6.05
2019-02-20T19:51:55.410Z,6.13
2019-02-20T19:54:35.839Z,5.73
2019-02-20T19:57:14.458Z,6.23
2019-02-20T20:00:10.663Z,6.30
2019-02-20T20:02:57.133Z,5.70
2019-02-20T20:05:46.716Z,6.78
2019-02-20T20:08:35.204Z,7.70
2019-02-20T20:11:18.031Z,7.83
2019-02-20T20:14:38.137Z,9.00
2019-02-20T20:17:36.797Z,8.80
2019-02-20T20:20:44.956Z,8.65
2019-02-20T20:23:44.237Z,9.98
2019-02-20T20:26:39.022Z,8.88
2019-02-20T20:29:23.673Z,8.85
2019-02-20T20:32:05.100Z,9.18
2019-02-20T20:34:40.607Z,11.50
2019-02-20T20:37:16.029Z,11.97
2019-02-20T20:40:03.238Z,11.30
2019-02-20T20:42:45.113Z,12.05
2019-02-20T20:45:23.744Z,11.20
2019-02-20T20:48:16.005Z,10.48
2019-02-20T20:51:05.367Z,10.10
2019-02-20T20:54:08.862Z,9.25
2019-02-20T20:57:05.644Z,10.72
2019-02-20T20:59:54.124Z,10.40
2019-02-20T21:02:28.831Z,9.85
2019-02-20T21:05:21.748Z,11.60
2019-02-20T21:08:10.547Z,9.20
2019-02-20T21:11:02.208Z,10.40
2019-02-20T21:13:53.565Z,11.15
2019-02-20T21:17:00.008Z,10.48
2019-02-20T21:19:52.944Z,11.43
2019-02-20T21:22:48.528Z,11.43
2019-02-20T21:26:02.464Z,10.68
2019-02-20T21:28:58.080Z,10.13
2019-02-20T21:31:54.633Z,9.73
2019-02-20T21:35:08.444Z,10.58
2019-02-20T21:38:00.521Z,9.03
2019-02-20T21:40:42.206Z,10.23
2019-02-20T21:43:44.824Z,11.10
2019-02-20T21:46:38.850Z,11.55
2019-02-20T21:49:29.473Z,9.93
2019-02-20T21:52:10.756Z,9.78
2019-02-20T21:55:14.020Z,10.38
2019-02-20T21:58:11.326Z,9.53
2019-02-20T22:00:52.046Z,11.48
2019-02-20T22:03:56.726Z,14.50
2019-02-20T22:06:53.709Z,17.85
2019-02-20T22:09:57.616Z,16.60
2019-02-20T22:13:06.838Z,15.05
2019-02-20T22:16:05.396Z,15.43
2019-02-20T22:18:39.236Z,17.12
2019-02-20T22:21:57.421Z,16.50
2019-02-20T22:24:47.058Z,15.28
2019-02-20T22:27:37.452Z,15.40
2019-02-20T22:30:28.498Z,17.32
2019-02-20T22:33:07.829Z,12.00
2019-02-20T22:35:57.616Z,9.33
2019-02-20T22:38:56.355Z,8.53
2019-02-20T22:41:39.782Z,8.48
2019-02-20T22:44:46.496Z,9.90
2019-02-20T22:47:37.199Z,11.05
2019-02-20T22:50:35.079Z,9.90
2019-02-20T22:53:13.373Z,11.55
2019-02-20T22:56:08.477Z,12.37
2019-02-20T22:58:42.397Z,10.63
2019-02-20T23:01:17.800Z,10.45
2019-02-20T23:03:50.580Z,12.55
2019-02-20T23:06:52.283Z,11.85
2019-02-20T23:09:41.858Z,11.10
2019-02-20T23:12:16.641Z,11.65
2019-02-20T23:15:01.195Z,12.60
2019-02-20T23:17:32.316Z,11.40
2019-02-20T23:20:02.146Z,12.15
2019-02-20T23:22:32.992Z,11.45
2019-02-20T23:25:02.829Z,10.55
2019-02-20T23:27:32.541Z,11.33
2019-02-20T23:30:12.248Z,11.12
2019-02-20T23:32:33.653Z,12.00
2019-02-20T23:35:06.293Z,10.90
2019-02-20T23:37:45.632Z,10.95
2019-02-20T23:40:16.429Z,11.12
2019-02-20T23:42:49.005Z,9.73
2019-02-20T23:45:18.380Z,8.88
2019-02-20T23:47:48.473Z,9.20
2019-02-20T23:50:18.586Z,9.73
2019-02-20T23:52:50.665Z,9.40
2019-02-20T23:55:20.778Z,8.55
2019-02-20T23:57:50.885Z,9.25
